createdAt,value
2019-03-24T04:01:42.494Z,39.87
2019-03-24T04:04:11.588Z,43.70
2019-03-24T04:06:40.806Z,39.80
2019-03-24T04:09:09.911Z,40.60
2019-03-24T04:11:39.009Z,40.47
2019-03-24T04:14:08.116Z,41.40
2019-03-24T04:16:37.208Z,43.90
2019-03-24T04:19:06.360Z,39.93
2019-03-24T04:21:35.488Z,40.37
2019-03-24T04:24:04.609Z,44.03
2019-03-24T04:26:34.073Z,42.73
2019-03-24T04:29:03.203Z,40.33
2019-03-24T04:31:32.572Z,38.73
2019-03-24T04:34:01.658Z,41.67
2019-03-24T04:36:30.775Z,40.03
2019-03-24T04:39:00.153Z,42.77
2019-03-24T04:41:29.261Z,44.77
2019-03-24T04:43:58.683Z,42.17
2019-03-24T04:46:27.779Z,42.07
2019-03-24T04:48:57.142Z,45.27
2019-03-24T04:51:26.618Z,39.10
2019-03-24T04:53:56.054Z,44.77
2019-03-24T04:56:25.211Z,46.17
2019-03-24T04:58:54.594Z,44.60
2019-03-24T05:01:24.004Z,40.57
2019-03-24T05:03:53.135Z,47.87
2019-03-24T05:06:22.230Z,46.03
2019-03-24T05:08:51.345Z,51.80
2019-03-24T05:11:20.434Z,50.57
2019-03-24T05:13:49.530Z,50.20
2019-03-24T05:16:18.646Z,56.50
2019-03-24T05:18:47.778Z,49.37
2019-03-24T05:21:17.218Z,47.13
2019-03-24T05:23:46.623Z,48.07
2019-03-24T05:26:16.037Z,50.53
2019-03-24T05:28:45.211Z,48.60
2019-03-24T05:31:14.301Z,50.70
2019-03-24T05:33:43.425Z,47.37
2019-03-24T05:36:13.097Z,48.57
2019-03-24T05:38:42.513Z,50.53
2019-03-24T05:41:12.029Z,45.93
2019-03-24T05:43:41.473Z,45.47
2019-03-24T05:46:10.590Z,51.17
2019-03-24T05:48:40.850Z,47.87
2019-03-24T05:51:09.971Z,49.47
2019-03-24T05:53:39.219Z,50.43
2019-03-24T05:56:08.306Z,49.70
2019-03-24T05:58:37.433Z,47.83
2019-03-24T06:01:06.582Z,47.47
2019-03-24T06:03:36.006Z,47.97
2019-03-24T06:06:05.090Z,48.10
2019-03-24T06:08:35.874Z,46.70
2019-03-24T06:11:05.086Z,51.50
2019-03-24T06:13:34.287Z,46.17
2019-03-24T06:16:05.302Z,47.30
2019-03-24T06:18:34.389Z,47.20
2019-03-24T06:21:03.495Z,47.70
2019-03-24T06:23:32.647Z,49.33
2019-03-24T06:26:01.718Z,45.53
2019-03-24T06:28:31.130Z,50.37
2019-03-24T06:31:01.777Z,46.63
2019-03-24T06:33:31.409Z,44.87
2019-03-24T06:36:00.518Z,46.87
2019-03-24T06:38:29.919Z,43.03
2019-03-24T06:40:59.366Z,46.47
2019-03-24T06:43:28.480Z,43.77
2019-03-24T06:45:57.570Z,43.93
2019-03-24T06:48:27.075Z,41.23
2019-03-24T06:50:56.618Z,42.47
2019-03-24T06:53:25.710Z,48.03
2019-03-24T06:55:55.162Z,45.27
2019-03-24T06:58:24.259Z,46.40
2019-03-24T07:00:53.374Z,47.90
2019-03-24T07:03:22.802Z,41.03
2019-03-24T07:05:51.918Z,43.90
2019-03-24T07:08:21.030Z,47.47
2019-03-24T07:10:50.421Z,43.77
2019-03-24T07:13:19.543Z,45.93
2019-03-24T07:15:48.638Z,48.40
2019-03-24T07:18:17.735Z,49.87
2019-03-24T07:20:46.846Z,50.27
2019-03-24T07:23:15.939Z,53.60
2019-03-24T07:25:45.056Z,55.20
2019-03-24T07:28:14.451Z,48.90
2019-03-24T07:30:43.574Z,59.10
2019-03-24T07:33:12.682Z,49.23
2019-03-24T07:35:42.135Z,54.57
2019-03-24T07:38:11.347Z,53.27
2019-03-24T07:40:40.441Z,52.40
2019-03-24T07:43:09.547Z,53.17
2019-03-24T07:45:39.045Z,57.97
2019-03-24T07:48:18.436Z,55.07
2019-03-24T07:50:39.002Z,55.10
2019-03-24T07:53:08.096Z,57.33
2019-03-24T07:55:37.266Z,57.43
2019-03-24T07:58:06.378Z,61.80
2019-03-24T08:00:36.746Z,64.53
2019-03-24T08:03:05.932Z,57.53
2019-03-24T08:05:35.032Z,58.20
2019-03-24T08:08:04.238Z,54.20
2019-03-24T08:10:33.329Z,60.70
2019-03-24T08:13:02.435Z,58.47
2019-03-24T08:15:31.626Z,55.67
2019-03-24T08:18:00.746Z,59.63
2019-03-24T08:20:29.868Z,58.43
2019-03-24T08:22:58.978Z,56.85
2019-03-24T08:25:28.680Z,55.52
2019-03-24T08:27:57.798Z,57.95
2019-03-24T08:30:31.925Z,54.10
2019-03-24T08:33:01.151Z,52.15
2019-03-24T08:35:30.278Z,51.30
2019-03-24T08:37:59.385Z,54.42
2019-03-24T08:40:28.494Z,52.10
2019-03-24T08:42:58.251Z,54.88
2019-03-24T08:45:28.226Z,51.00
2019-03-24T08:47:57.655Z,51.90
2019-03-24T08:50:26.751Z,54.63
2019-03-24T08:52:55.924Z,54.53
2019-03-24T08:55:25.157Z,54.33
2019-03-24T08:57:54.313Z,57.50
2019-03-24T09:00:30.527Z,54.55
2019-03-24T09:02:54.310Z,52.78
2019-03-24T09:05:23.418Z,52.53
2019-03-24T09:07:52.518Z,50.17
2019-03-24T09:10:21.715Z,50.75
2019-03-24T09:12:50.858Z,51.28
2019-03-24T09:15:19.990Z,50.63
2019-03-24T09:17:49.114Z,49.08
2019-03-24T09:20:18.225Z,50.50
2019-03-24T09:22:47.322Z,52.98
2019-03-24T09:25:16.477Z,48.10
2019-03-24T09:27:45.607Z,48.38
2019-03-24T09:30:32.439Z,47.85
2019-03-24T09:33:01.539Z,48.95
2019-03-24T09:35:30.707Z,53.75
2019-03-24T09:37:59.823Z,51.20
2019-03-24T09:40:30.386Z,47.43
2019-03-24T09:43:00.307Z,51.92
2019-03-24T09:45:29.657Z,56.23
2019-03-24T09:47:58.770Z,49.67
2019-03-24T09:50:27.904Z,51.23
2019-03-24T09:52:57.122Z,48.78
2019-03-24T09:55:26.555Z,51.42
2019-03-24T09:57:55.657Z,51.05
2019-03-24T10:00:24.754Z,47.25
2019-03-24T10:02:53.891Z,49.20
2019-03-24T10:05:23.005Z,48.95
2019-03-24T10:07:52.233Z,45.30
2019-03-24T10:10:21.338Z,44.30
2019-03-24T10:12:50.458Z,47.93
2019-03-24T10:15:19.590Z,46.70
2019-03-24T10:17:48.689Z,51.73
2019-03-24T10:20:18.075Z,46.90
2019-03-24T10:22:47.190Z,41.42
2019-03-24T10:25:16.306Z,42.98
2019-03-24T10:27:45.526Z,41.33
2019-03-24T10:30:15.070Z,42.25
2019-03-24T10:32:44.178Z,46.65
2019-03-24T10:35:13.334Z,45.95
2019-03-24T10:37:42.439Z,48.15
2019-03-24T10:40:11.605Z,42.85
2019-03-24T10:42:40.710Z,43.50
2019-03-24T10:45:10.141Z,47.33
2019-03-24T10:47:39.286Z,41.73
2019-03-24T10:50:09.246Z,44.08
2019-03-24T10:52:38.617Z,46.65
2019-03-24T10:55:09.210Z,46.18
2019-03-24T10:57:38.691Z,44.88
2019-03-24T11:00:08.902Z,42.73
2019-03-24T11:02:41.742Z,41.85
2019-03-24T11:05:11.370Z,44.33
2019-03-24T11:07:40.486Z,42.55
2019-03-24T11:10:09.610Z,45.78
2019-03-24T11:12:38.775Z,43.83
2019-03-24T11:15:09.106Z,41.85
2019-03-24T11:17:38.670Z,41.25
2019-03-24T11:20:08.491Z,43.65
2019-03-24T11:22:37.599Z,41.48
2019-03-24T11:25:08.195Z,43.65
2019-03-24T11:27:37.575Z,44.77
2019-03-24T11:30:09.359Z,42.00
2019-03-24T11:32:38.943Z,43.95
2019-03-24T11:35:08.094Z,44.63
2019-03-24T11:37:37.226Z,40.88
2019-03-24T11:40:06.682Z,44.48
2019-03-24T11:42:54.848Z,41.05
2019-03-24T11:45:24.042Z,41.75
2019-03-24T11:48:12.208Z,42.58
2019-03-24T11:50:41.354Z,44.93
2019-03-24T11:53:10.457Z,38.20
2019-03-24T11:55:39.995Z,41.35
2019-03-24T11:58:09.569Z,40.55
2019-03-24T12:00:39.581Z,39.45
2019-03-24T12:03:08.694Z,41.23
2019-03-24T12:05:37.800Z,39.20
2019-03-24T12:08:06.919Z,39.35
2019-03-24T12:10:36.011Z,39.92
2019-03-24T12:13:05.142Z,37.33
2019-03-24T12:15:34.258Z,35.80
2019-03-24T12:18:03.722Z,43.48
2019-03-24T12:20:32.815Z,37.78
2019-03-24T12:23:01.930Z,37.70
2019-03-24T12:25:31.062Z,39.60
2019-03-24T12:28:00.169Z,34.18
2019-03-24T12:30:29.302Z,37.10
2019-03-24T12:32:58.510Z,37.10
2019-03-24T12:35:28.054Z,39.75
2019-03-24T12:37:57.226Z,35.28
2019-03-24T12:40:26.339Z,36.93
2019-03-24T12:42:55.469Z,38.53
2019-03-24T12:45:24.578Z,36.88
2019-03-24T12:47:53.703Z,35.33
2019-03-24T12:50:31.420Z,37.00
2019-03-24T12:52:53.684Z,36.25
2019-03-24T12:55:22.833Z,42.78
2019-03-24T12:57:51.986Z,39.73
2019-03-24T13:00:33.920Z,38.63
2019-03-24T13:03:03.050Z,42.38
2019-03-24T13:05:32.158Z,37.42
2019-03-24T13:08:18.989Z,41.50
2019-03-24T13:10:48.122Z,42.88
2019-03-24T13:13:17.266Z,43.42
2019-03-24T13:15:46.698Z,45.60
2019-03-24T13:18:15.811Z,42.62
2019-03-24T13:20:45.090Z,40.95
2019-03-24T13:23:14.294Z,49.65
2019-03-24T13:25:43.424Z,42.62
2019-03-24T13:28:12.757Z,43.58
2019-03-24T13:30:42.323Z,42.65
2019-03-24T13:33:11.418Z,44.00
2019-03-24T13:35:40.546Z,43.35
2019-03-24T13:38:09.676Z,41.77
2019-03-24T13:40:39.150Z,39.53
2019-03-24T13:43:08.289Z,37.88
2019-03-24T13:45:37.477Z,38.23
2019-03-24T13:48:06.578Z,41.60
2019-03-24T13:50:35.703Z,39.10
2019-03-24T13:53:05.094Z,39.38
2019-03-24T13:55:34.393Z,42.95
2019-03-24T13:58:03.993Z,39.25
2019-03-24T14:00:33.178Z,38.20
2019-03-24T14:03:02.710Z,38.53
2019-03-24T14:05:33.582Z,41.83
2019-03-24T14:08:03.618Z,39.08
2019-03-24T14:10:32.770Z,39.15
2019-03-24T14:13:02.957Z,38.45
2019-03-24T14:15:32.063Z,41.25
2019-03-24T14:18:01.358Z,40.80
2019-03-24T14:20:38.591Z,39.90
2019-03-24T14:23:01.595Z,35.60
2019-03-24T14:25:31.108Z,41.83
2019-03-24T14:28:00.374Z,40.15
2019-03-24T14:30:46.693Z,40.40
2019-03-24T14:33:16.123Z,34.95
2019-03-24T14:35:46.083Z,39.48
2019-03-24T14:38:15.412Z,47.48
2019-03-24T14:40:44.594Z,36.65
2019-03-24T14:43:14.079Z,40.23
2019-03-24T14:45:43.219Z,38.45
2019-03-24T14:48:13.677Z,40.60
2019-03-24T14:50:53.550Z,39.67
2019-03-24T14:53:13.736Z,41.13
2019-03-24T14:55:42.986Z,42.20
2019-03-24T14:58:14.847Z,39.20
2019-03-24T15:00:43.981Z,42.40
2019-03-24T15:03:13.342Z,45.00
2019-03-24T15:05:42.564Z,46.70
2019-03-24T15:08:11.858Z,45.27
2019-03-24T15:10:41.030Z,41.97
2019-03-24T15:13:10.544Z,42.90
2019-03-24T15:15:39.986Z,44.03
2019-03-24T15:18:09.142Z,46.40
2019-03-24T15:20:38.281Z,44.87
2019-03-24T15:23:07.425Z,46.00
2019-03-24T15:25:36.611Z,44.53
2019-03-24T15:28:05.830Z,46.30
2019-03-24T15:30:34.923Z,46.27
2019-03-24T15:33:04.074Z,50.67
2019-03-24T15:35:33.626Z,47.77
2019-03-24T15:38:08.579Z,51.37
2019-03-24T15:40:34.259Z,51.43
2019-03-24T15:43:03.836Z,45.97
2019-03-24T15:45:33.037Z,45.80
2019-03-24T15:48:02.204Z,48.30
2019-03-24T15:50:31.325Z,50.63
2019-03-24T15:53:00.471Z,48.17
2019-03-24T15:55:29.570Z,50.30
2019-03-24T15:57:58.729Z,43.60
2019-03-24T16:00:49.764Z,49.33
2019-03-24T16:03:19.010Z,47.80
2019-03-24T16:05:48.114Z,49.80
2019-03-24T16:08:17.299Z,52.03
2019-03-24T16:10:46.419Z,46.43
2019-03-24T16:13:15.539Z,50.37
2019-03-24T16:15:44.678Z,52.13
2019-03-24T16:18:13.858Z,56.10
2019-03-24T16:20:42.989Z,50.33
2019-03-24T16:23:12.180Z,48.47
2019-03-24T16:25:41.502Z,49.77
2019-03-24T16:28:10.657Z,55.70
2019-03-24T16:30:39.851Z,55.37
2019-03-24T16:33:09.006Z,56.20
2019-03-24T16:35:38.172Z,57.43
2019-03-24T16:38:07.654Z,61.23
2019-03-24T16:40:36.894Z,61.70
2019-03-24T16:43:06.289Z,62.57
2019-03-24T16:45:35.486Z,64.77
2019-03-24T16:48:23.888Z,61.10
2019-03-24T16:50:53.023Z,66.80
2019-03-24T16:53:23.297Z,57.03
2019-03-24T16:55:52.432Z,62.33
2019-03-24T16:58:21.730Z,58.37
2019-03-24T17:00:50.892Z,63.97
2019-03-24T17:03:20.109Z,64.93
2019-03-24T17:05:49.342Z,65.60
2019-03-24T17:08:19.038Z,66.00
2019-03-24T17:10:48.456Z,63.83
2019-03-24T17:13:17.658Z,63.43
2019-03-24T17:15:46.808Z,64.57
2019-03-24T17:18:16.374Z,70.87
2019-03-24T17:20:46.414Z,66.43
2019-03-24T17:23:15.838Z,61.97
2019-03-24T17:25:45.392Z,62.17
2019-03-24T17:28:14.805Z,58.93
2019-03-24T17:30:44.121Z,63.70
2019-03-24T17:33:13.714Z,62.23
2019-03-24T17:35:43.823Z,56.30
2019-03-24T17:38:12.954Z,59.60
2019-03-24T17:40:42.074Z,60.37
2019-03-24T17:43:11.166Z,60.63
2019-03-24T17:45:40.552Z,61.10
2019-03-24T17:48:09.693Z,62.73
2019-03-24T17:50:38.882Z,59.87
2019-03-24T17:53:09.231Z,59.83
2019-03-24T17:55:38.605Z,61.43
2019-03-24T17:58:07.730Z,66.40
2019-03-24T18:00:38.767Z,69.53
2019-03-24T18:03:07.971Z,69.87
2019-03-24T18:05:37.435Z,65.53
2019-03-24T18:08:06.830Z,69.00
2019-03-24T18:10:36.014Z,69.20
2019-03-24T18:13:05.174Z,64.93
2019-03-24T18:15:34.634Z,66.10
2019-03-24T18:18:03.771Z,66.63
2019-03-24T18:20:33.126Z,67.80
2019-03-24T18:23:02.340Z,65.90
2019-03-24T18:25:31.875Z,63.67
2019-03-24T18:28:00.978Z,70.27
2019-03-24T18:30:30.159Z,68.40
2019-03-24T18:32:59.878Z,74.60
2019-03-24T18:35:28.989Z,68.57
2019-03-24T18:37:58.123Z,69.30
2019-03-24T18:40:27.225Z,78.40
2019-03-24T18:42:56.707Z,64.63
2019-03-24T18:45:25.996Z,66.43
2019-03-24T18:47:55.098Z,67.60
2019-03-24T18:50:24.198Z,77.77
2019-03-24T18:52:53.315Z,70.53
2019-03-24T18:55:22.438Z,71.47
2019-03-24T18:57:51.635Z,72.93
2019-03-24T19:00:20.862Z,78.10
2019-03-24T19:02:49.966Z,71.80
2019-03-24T19:05:19.072Z,75.70
2019-03-24T19:07:48.784Z,74.50
2019-03-24T19:10:18.328Z,73.10
2019-03-24T19:12:47.455Z,74.97
2019-03-24T19:15:17.375Z,75.63
2019-03-24T19:17:46.856Z,78.33
2019-03-24T19:20:15.964Z,71.10
2019-03-24T19:22:45.104Z,76.07
2019-03-24T19:25:15.074Z,83.27
2019-03-24T19:27:44.590Z,74.63
2019-03-24T19:30:14.694Z,69.33
2019-03-24T19:32:43.870Z,78.47
2019-03-24T19:35:13.281Z,75.47
2019-03-24T19:37:42.994Z,82.20
2019-03-24T19:40:25.419Z,77.23
2019-03-24T19:42:54.734Z,73.70
2019-03-24T19:45:24.010Z,72.13
2019-03-24T19:47:53.190Z,80.67
2019-03-24T19:50:23.014Z,75.20
2019-03-24T19:52:52.235Z,83.67
2019-03-24T19:55:21.402Z,78.70
2019-03-24T19:57:50.728Z,76.47
2019-03-24T20:00:20.334Z,81.60
2019-03-24T20:02:49.553Z,81.77
2019-03-24T20:05:18.738Z,74.27
2019-03-24T20:07:48.496Z,77.37
2019-03-24T20:10:17.731Z,80.17
2019-03-24T20:12:46.867Z,83.47
2019-03-24T20:15:16.010Z,78.87
2019-03-24T20:17:45.149Z,81.87
2019-03-24T20:20:14.439Z,78.47
2019-03-24T20:22:43.538Z,72.80
2019-03-24T20:25:12.747Z,82.07
2019-03-24T20:27:41.950Z,81.63
2019-03-24T20:30:11.323Z,81.20
2019-03-24T20:32:40.438Z,84.47
2019-03-24T20:35:11.174Z,79.80
2019-03-24T20:37:40.263Z,86.63
2019-03-24T20:40:09.381Z,73.37
2019-03-24T20:42:38.486Z,77.00
2019-03-24T20:45:07.999Z,83.97
2019-03-24T20:47:37.151Z,80.67
2019-03-24T20:50:07.094Z,83.40
2019-03-24T20:52:36.284Z,85.90
2019-03-24T20:55:05.992Z,81.13
2019-03-24T20:57:35.117Z,78.80
2019-03-24T21:00:05.725Z,83.27
2019-03-24T21:02:34.823Z,83.13
2019-03-24T21:05:04.110Z,86.83
2019-03-24T21:07:33.207Z,90.47
2019-03-24T21:10:02.637Z,95.87
2019-03-24T21:12:31.730Z,92.10
2019-03-24T21:15:00.830Z,88.03
2019-03-24T21:17:29.949Z,77.63
2019-03-24T21:19:59.058Z,83.37
2019-03-24T21:22:28.198Z,80.20
2019-03-24T21:24:57.298Z,83.50
2019-03-24T21:27:26.398Z,83.70
2019-03-24T21:29:55.555Z,88.40
2019-03-24T21:32:25.051Z,79.50
2019-03-24T21:34:54.509Z,87.03
2019-03-24T21:37:23.602Z,85.40
2019-03-24T21:39:52.689Z,93.03
2019-03-24T21:42:21.802Z,88.17
2019-03-24T21:44:50.895Z,86.70
2019-03-24T21:47:20.022Z,89.23
2019-03-24T21:49:49.115Z,91.10
2019-03-24T21:52:18.222Z,92.77
2019-03-24T21:54:47.341Z,94.77
2019-03-24T21:57:16.430Z,94.87
2019-03-24T21:59:45.596Z,96.67
2019-03-24T22:02:14.781Z,85.97
2019-03-24T22:04:43.994Z,93.00
2019-03-24T22:07:13.107Z,90.20
2019-03-24T22:09:42.231Z,91.73
2019-03-24T22:12:11.353Z,98.90
2019-03-24T22:14:40.467Z,106.77
2019-03-24T22:17:09.654Z,98.73
2019-03-24T22:19:38.825Z,92.30
2019-03-24T22:22:07.938Z,95.87
2019-03-24T22:24:37.058Z,102.00
2019-03-24T22:27:06.149Z,95.93
2019-03-24T22:29:35.246Z,99.37
2019-03-24T22:32:04.402Z,97.00
2019-03-24T22:34:33.516Z,97.87
2019-03-24T22:37:02.718Z,100.27
2019-03-24T22:39:31.874Z,95.53
2019-03-24T22:42:01.296Z,100.90
2019-03-24T22:44:30.410Z,108.60
2019-03-24T22:46:59.503Z,111.27
2019-03-24T22:49:28.619Z,95.37
2019-03-24T22:52:06.791Z,104.33
2019-03-24T22:54:28.938Z,106.53
2019-03-24T22:56:58.088Z,106.40
2019-03-24T22:59:27.230Z,104.03
